createdAt,value
2018-03-23T00:00:37.496Z,12.33
2018-03-23T00:03:05.757Z,13.05
2018-03-23T00:05:34.794Z,13.13
2018-03-23T00:08:03.044Z,13.93
2018-03-23T00:10:31.317Z,12.20
2018-03-23T00:13:00.324Z,12.60
2018-03-23T00:15:28.593Z,12.17
2018-03-23T00:17:57.607Z,12.50
2018-03-23T00:20:25.883Z,12.00
2018-03-23T00:22:54.890Z,11.63
2018-03-23T00:25:23.144Z,11.77
2018-03-23T00:27:52.184Z,11.33
2018-03-23T00:30:20.450Z,11.47
2018-03-23T00:32:48.718Z,12.70
2018-03-23T00:35:17.744Z,12.63
2018-03-23T00:37:45.995Z,11.47
2018-03-23T00:40:15.041Z,11.23
2018-03-23T00:42:43.296Z,12.00
2018-03-23T00:45:11.553Z,13.63
2018-03-23T00:47:40.587Z,12.80
2018-03-23T00:50:08.832Z,13.90
2018-03-23T00:52:37.092Z,12.70
2018-03-23T00:55:05.360Z,14.13
2018-03-23T00:57:33.604Z,14.13
2018-03-23T01:00:01.867Z,13.90
2018-03-23T01:02:30.133Z,13.87
2018-03-23T01:04:58.409Z,13.95
2018-03-23T01:07:27.430Z,12.40
2018-03-23T01:09:55.692Z,12.97
2018-03-23T01:12:24.739Z,11.53
2018-03-23T01:14:52.969Z,12.97
2018-03-23T01:17:22.010Z,12.50
2018-03-23T01:19:50.265Z,12.20
2018-03-23T01:22:18.518Z,13.63
2018-03-23T01:24:47.549Z,13.65
2018-03-23T01:27:15.796Z,12.77
2018-03-23T01:29:44.921Z,12.80
2018-03-23T01:32:13.187Z,14.57
2018-03-23T01:34:42.208Z,15.10
2018-03-23T01:37:10.460Z,13.70
2018-03-23T01:39:39.476Z,14.20
2018-03-23T01:42:07.741Z,13.63
2018-03-23T01:44:36.757Z,13.50
2018-03-23T01:47:05.167Z,15.23
2018-03-23T01:49:33.424Z,17.17
2018-03-23T01:52:01.673Z,15.33
2018-03-23T01:54:30.698Z,14.87
2018-03-23T01:56:58.952Z,14.80
2018-03-23T01:59:27.974Z,15.48
2018-03-23T02:01:56.229Z,15.07
2018-03-23T02:04:27.496Z,16.13
2018-03-23T02:06:55.740Z,14.75
2018-03-23T02:09:23.997Z,15.50
2018-03-23T02:11:52.264Z,15.55
2018-03-23T02:14:20.512Z,15.47
2018-03-23T02:16:48.764Z,14.40
2018-03-23T02:19:17.034Z,16.90
2018-03-23T02:21:45.285Z,16.43
2018-03-23T02:24:13.581Z,16.30
2018-03-23T02:26:41.832Z,17.37
2018-03-23T02:29:10.106Z,16.67
2018-03-23T02:31:38.362Z,16.90
2018-03-23T02:34:07.386Z,14.93
2018-03-23T02:36:35.634Z,15.77
2018-03-23T02:39:04.644Z,16.07
2018-03-23T02:41:33.669Z,15.25
2018-03-23T02:44:01.935Z,14.82
2018-03-23T02:46:30.185Z,16.87
2018-03-23T02:48:59.204Z,16.33
2018-03-23T02:51:28.329Z,16.07
2018-03-23T02:53:56.598Z,16.07
2018-03-23T02:56:24.840Z,15.90
2018-03-23T02:58:53.085Z,16.60
2018-03-23T03:01:21.359Z,15.77
2018-03-23T03:03:49.601Z,17.43
2018-03-23T03:06:18.617Z,17.30
2018-03-23T03:08:46.885Z,17.40
2018-03-23T03:11:15.899Z,16.55
2018-03-23T03:13:44.159Z,15.30
2018-03-23T03:16:13.181Z,16.00
2018-03-23T03:18:41.437Z,15.93
2018-03-23T03:21:10.465Z,15.97
2018-03-23T03:23:38.728Z,16.33
2018-03-23T03:26:06.960Z,15.27
2018-03-23T03:28:35.219Z,15.40
2018-03-23T03:31:03.488Z,15.40
2018-03-23T03:33:31.736Z,15.00
2018-03-23T03:35:59.988Z,15.20
2018-03-23T03:38:28.236Z,14.67
2018-03-23T03:40:56.500Z,16.02
2018-03-23T03:43:24.739Z,16.37
2018-03-23T03:45:53.752Z,16.50
2018-03-23T03:48:22.025Z,16.70
2018-03-23T03:50:51.052Z,17.90
2018-03-23T03:53:19.311Z,16.23
2018-03-23T03:55:47.576Z,15.60
2018-03-23T03:58:16.589Z,17.23
2018-03-23T04:00:45.600Z,16.13
2018-03-23T04:03:14.004Z,17.80
2018-03-23T04:05:42.268Z,17.40
2018-03-23T04:08:10.975Z,17.60
2018-03-23T04:10:39.235Z,17.90
2018-03-23T04:13:08.741Z,16.77
2018-03-23T04:15:37.008Z,16.02
2018-03-23T04:18:06.026Z,16.90
2018-03-23T04:20:34.276Z,15.80
2018-03-23T04:23:03.309Z,17.63
2018-03-23T04:25:31.577Z,17.50
2018-03-23T04:27:59.836Z,17.70
2018-03-23T04:30:28.864Z,18.23
2018-03-23T04:32:57.115Z,18.67
2018-03-23T04:35:26.132Z,17.30
2018-03-23T04:37:54.396Z,17.00
2018-03-23T04:40:23.408Z,17.00
2018-03-23T04:42:51.667Z,17.33
2018-03-23T04:45:20.700Z,18.03
2018-03-23T04:47:48.949Z,15.00
2018-03-23T04:50:17.970Z,17.40
2018-03-23T04:52:46.275Z,15.97
2018-03-23T04:55:15.256Z,15.07
2018-03-23T04:57:43.516Z,14.90
2018-03-23T05:00:11.776Z,15.50
2018-03-23T05:02:40.789Z,16.03
2018-03-23T05:05:10.145Z,16.62
2018-03-23T05:07:38.404Z,15.97
2018-03-23T05:10:06.664Z,14.93
2018-03-23T05:12:34.939Z,15.07
2018-03-23T05:15:03.955Z,21.20
2018-03-23T05:17:32.188Z,18.70
2018-03-23T05:20:00.693Z,17.27
2018-03-23T05:22:29.708Z,22.73
2018-03-23T05:24:57.952Z,19.77
2018-03-23T05:27:26.218Z,17.60
2018-03-23T05:29:54.468Z,16.67
2018-03-23T05:32:22.720Z,15.97
2018-03-23T05:34:51.751Z,16.57
2018-03-23T05:37:19.996Z,16.10
2018-03-23T05:39:48.247Z,15.40
2018-03-23T05:42:16.506Z,15.43
